Time;durP1;ratioP1;P1;durP2;ratioP2;P2;SDS_P1;SDS_P2;PMS_P1;PMS_P2;Temp;Humidity;BMP_temperature;BMP_pressure;BME280_temperature;BME280_humidity;BME280_pressure;Samples;Min_cycle;Max_cycle;Signal;HPM_P1;HPM_P2
2022/03/26 00:00:22;;;;;;;45.90;18.13;;;-1.30;99.90;;;;;;5012159;28;20187;-69
2022/03/26 00:02:49;;;;;;;35.43;15.17;;;-1.10;99.90;;;;;;5011967;28;20194;-68
2022/03/26 00:05:15;;;;;;;36.20;16.07;;;-0.90;99.90;;;;;;5012090;28;20194;-68
2022/03/26 00:07:42;;;;;;;30.83;15.20;;;-0.70;99.90;;;;;;5011822;28;20662;-71
2022/03/26 00:10:08;;;;;;;39.03;16.40;;;-0.60;99.90;;;;;;4994428;28;20583;-68
2022/03/26 00:12:34;;;;;;;33.47;16.37;;;-0.50;99.90;;;;;;5011571;28;20269;-69
2022/03/26 00:15:01;;;;;;;37.67;17.10;;;-0.60;99.90;;;;;;5011497;28;20273;-68
2022/03/26 00:17:26;;;;;;;39.57;18.63;;;-0.70;99.90;;;;;;5011577;28;20210;-68
2022/03/26 00:19:53;;;;;;;43.97;20.50;;;-0.80;99.90;;;;;;5012073;28;20218;-68
2022/03/26 00:22:19;;;;;;;42.73;19.50;;;-0.80;99.90;;;;;;5012001;28;20190;-68
2022/03/26 00:24:45;;;;;;;41.20;19.50;;;-0.90;99.90;;;;;;5011265;28;20181;-68
2022/03/26 00:27:11;;;;;;;48.30;20.77;;;-0.90;99.90;;;;;;5011368;28;20190;-70
2022/03/26 00:29:37;;;;;;;43.53;20.17;;;-0.90;99.90;;;;;;5011199;28;20194;-69
2022/03/26 00:32:04;;;;;;;50.40;22.63;;;-0.90;99.90;;;;;;5012020;28;20191;-68
2022/03/26 00:34:32;;;;;;;48.90;23.27;;;-0.90;99.90;;;;;;5011323;28;20519;-68
2022/03/26 00:36:58;;;;;;;57.83;21.97;;;-1.00;99.90;;;;;;5030369;28;20239;-68
2022/03/26 00:39:24;;;;;;;42.63;21.17;;;-1.00;99.90;;;;;;5031501;28;20244;-67
2022/03/26 00:41:50;;;;;;;46.10;19.53;;;-1.00;99.90;;;;;;5031057;28;20640;-68
2022/03/26 00:44:16;;;;;;;43.67;19.17;;;-1.00;99.90;;;;;;5031372;28;20225;-68
2022/03/26 00:46:46;;;;;;;44.20;20.53;;;-1.10;99.90;;;;;;5031259;28;20206;-68
2022/03/26 00:49:12;;;;;;;41.80;18.83;;;-1.10;99.90;;;;;;5031312;28;20242;-68
2022/03/26 00:51:38;;;;;;;41.73;18.70;;;-1.10;99.90;;;;;;5031326;28;20248;-68
2022/03/26 00:54:04;;;;;;;44.47;18.07;;;-1.00;99.90;;;;;;5031455;28;20638;-68
2022/03/26 00:56:30;;;;;;;45.07;19.17;;;-1.00;99.90;;;;;;5031147;28;20186;-67
2022/03/26 00:58:56;;;;;;;46.67;19.87;;;-1.00;99.90;;;;;;5031381;28;20181;-69
2022/03/26 01:01:21;;;;;;;46.03;18.23;;;-0.90;99.90;;;;;;5031179;28;20182;-69
2022/03/26 01:03:47;;;;;;;40.00;18.27;;;-0.90;99.90;;;;;;5034177;28;20177;-67
2022/03/26 01:06:14;;;;;;;40.67;18.43;;;-0.90;99.90;;;;;;5033984;28;20583;-67
2022/03/26 01:08:40;;;;;;;38.67;17.43;;;-0.80;99.90;;;;;;5035947;28;20613;-68
2022/03/26 01:11:06;;;;;;;50.20;19.20;;;-0.80;99.90;;;;;;5035579;28;20215;-68
2022/03/26 01:13:34;;;;;;;41.60;17.43;;;-0.80;99.90;;;;;;5032897;28;20201;-68
2022/03/26 01:16:01;;;;;;;38.53;17.17;;;-0.80;99.90;;;;;;5034945;28;20190;-68
2022/03/26 01:18:28;;;;;;;43.67;16.30;;;-0.70;99.90;;;;;;5034879;28;20194;-69
2022/03/26 01:20:53;;;;;;;33.07;16.53;;;-0.70;99.90;;;;;;5033382;28;20189;-69
2022/03/26 01:23:20;;;;;;;38.20;16.00;;;-0.70;99.90;;;;;;5034675;28;20188;-69
2022/03/26 01:25:46;;;;;;;40.33;16.83;;;-0.70;99.90;;;;;;5034183;28;20185;-69
2022/03/26 01:28:13;;;;;;;32.60;15.37;;;-0.70;99.90;;;;;;5034515;28;20182;-69
2022/03/26 01:30:39;;;;;;;32.20;15.00;;;-0.70;99.90;;;;;;5033962;28;20205;-69
2022/03/26 01:33:05;;;;;;;36.70;16.07;;;-0.80;99.90;;;;;;5016430;28;20205;-67
2022/03/26 01:35:30;;;;;;;41.30;17.60;;;-0.90;99.90;;;;;;5026970;28;20191;-68
2022/03/26 01:38:01;;;;;;;32.70;15.00;;;-0.90;99.90;;;;;;5014404;28;20261;-68
2022/03/26 01:40:27;;;;;;;32.27;15.33;;;-0.80;99.90;;;;;;4997744;28;20187;-69
2022/03/26 01:42:54;;;;;;;31.43;15.27;;;-0.80;99.90;;;;;;5014326;28;20266;-67
2022/03/26 01:45:19;;;;;;;32.07;15.67;;;-0.80;99.90;;;;;;5014208;28;20206;-69
2022/03/26 01:47:45;;;;;;;33.07;15.40;;;-0.80;99.90;;;;;;4996616;28;20190;-70
2022/03/26 01:50:11;;;;;;;35.97;16.47;;;-0.90;99.90;;;;;;5014289;28;20243;-68
2022/03/26 01:52:37;;;;;;;33.60;15.30;;;-0.90;99.90;;;;;;5013958;28;20277;-69
2022/03/26 01:55:03;;;;;;;37.47;15.50;;;-0.90;99.90;;;;;;5014052;28;20270;-70
2022/03/26 01:57:29;;;;;;;35.30;15.90;;;-0.90;99.90;;;;;;5014389;28;20697;-69
2022/03/26 01:59:57;;;;;;;32.07;15.17;;;-0.90;99.90;;;;;;5013846;28;20277;-68
2022/03/26 02:02:23;;;;;;;34.07;15.13;;;-0.90;99.90;;;;;;5014306;28;20178;-69
2022/03/26 02:04:49;;;;;;;31.73;15.20;;;-0.90;99.90;;;;;;5013821;28;20183;-67
2022/03/26 02:07:15;;;;;;;25.30;13.57;;;-0.80;99.90;;;;;;5013886;28;20196;-68
2022/03/26 02:09:43;;;;;;;32.43;13.80;;;-0.60;99.90;;;;;;5013406;28;20187;-68
2022/03/26 02:12:25;;;;;;;31.80;14.93;;;-0.50;99.90;;;;;;5014025;28;20565;-68
2022/03/26 02:14:52;;;;;;;37.93;14.70;;;-0.50;99.90;;;;;;5013123;28;20286;-68
2022/03/26 02:17:18;;;;;;;33.27;14.67;;;-0.50;99.90;;;;;;5013970;28;20244;-67
2022/03/26 02:19:54;;;;;;;31.27;15.10;;;-0.50;99.90;;;;;;5013273;28;20622;-68
2022/03/26 02:22:21;;;;;;;33.73;14.40;;;-0.50;99.90;;;;;;5013983;28;20170;-68
2022/03/26 02:24:48;;;;;;;34.37;15.00;;;-0.40;99.90;;;;;;5012943;28;20646;-68
2022/03/26 02:27:14;;;;;;;34.00;14.07;;;-0.30;99.90;;;;;;5013695;28;20187;-68
2022/03/26 02:29:39;;;;;;;32.53;15.07;;;-0.20;99.90;;;;;;4979455;28;20201;-68
2022/03/26 02:32:06;;;;;;;31.33;14.00;;;-0.20;99.90;;;;;;5013394;28;20186;-69
2022/03/26 02:34:32;;;;;;;27.23;12.23;;;-0.20;99.90;;;;;;5013387;28;20191;-63
2022/03/26 02:36:59;;;;;;;29.70;14.63;;;-0.20;99.90;;;;;;5032054;28;20193;-68
2022/03/26 02:39:25;;;;;;;33.23;14.27;;;-0.10;99.90;;;;;;5032931;28;20209;-69
2022/03/26 02:41:51;;;;;;;33.23;13.43;;;-0.10;99.90;;;;;;5032797;28;20182;-68
2022/03/26 02:44:17;;;;;;;28.13;13.70;;;-0.20;99.90;;;;;;5033237;28;20978;-68
2022/03/26 02:46:45;;;;;;;30.93;13.40;;;-0.30;99.90;;;;;;5032393;28;20201;-68
2022/03/26 02:49:12;;;;;;;28.17;13.50;;;-0.40;99.90;;;;;;5015240;28;20740;-68
2022/03/26 02:51:38;;;;;;;31.93;13.93;;;-0.40;99.90;;;;;;5032786;28;20213;-68
2022/03/26 02:54:05;;;;;;;28.87;14.27;;;-0.40;99.90;;;;;;5032968;28;20233;-69
2022/03/26 02:56:30;;;;;;;35.97;14.80;;;-0.40;99.90;;;;;;5032921;28;20535;-68
2022/03/26 02:58:56;;;;;;;32.73;13.60;;;-0.40;99.90;;;;;;5032417;28;20182;-68
2022/03/26 03:01:23;;;;;;;30.23;14.33;;;-0.40;99.90;;;;;;5032370;28;20208;-68
2022/03/26 03:03:50;;;;;;;29.60;14.23;;;-0.40;99.90;;;;;;5032330;28;20193;-68
2022/03/26 03:06:17;;;;;;;28.90;14.20;;;-0.40;99.90;;;;;;5032743;28;20177;-68
2022/03/26 03:08:43;;;;;;;28.93;14.60;;;-0.30;99.90;;;;;;5014659;28;20214;-68
2022/03/26 03:11:09;;;;;;;31.40;14.37;;;-0.30;99.90;;;;;;5032475;28;20205;-68
2022/03/26 03:13:36;;;;;;;33.10;14.73;;;-0.30;99.90;;;;;;5032107;28;20190;-62
2022/03/26 03:16:01;;;;;;;28.23;12.93;;;-0.20;99.90;;;;;;5032401;28;20674;-68
2022/03/26 03:18:27;;;;;;;34.50;13.70;;;-0.10;99.90;;;;;;5032236;28;20174;-68
2022/03/26 03:20:53;;;;;;;30.83;13.50;;;-0.10;99.90;;;;;;5031999;28;20263;-70
2022/03/26 03:23:18;;;;;;;25.83;12.63;;;-0.10;99.90;;;;;;5030963;28;20724;-70
2022/03/26 03:25:44;;;;;;;25.40;12.63;;;0.00;99.90;;;;;;5031537;28;20190;-68
2022/03/26 03:28:10;;;;;;;30.70;13.23;;;0.00;99.90;;;;;;5030785;28;20186;-68
2022/03/26 03:30:36;;;;;;;29.10;12.90;;;0.10;99.90;;;;;;5014150;28;20693;-63
2022/03/26 03:33:02;;;;;;;30.07;13.67;;;0.00;99.90;;;;;;5014170;28;20281;-71
2022/03/26 03:35:28;;;;;;;35.83;14.17;;;0.00;99.90;;;;;;5025582;28;20179;-69
2022/03/26 03:37:54;;;;;;;30.43;12.90;;;-0.10;99.90;;;;;;5012209;28;20189;-69
2022/03/26 03:40:19;;;;;;;27.50;12.90;;;-0.10;99.90;;;;;;5012448;28;20289;-67
2022/03/26 03:42:45;;;;;;;33.50;14.23;;;-0.10;99.90;;;;;;4994813;28;20623;-68
2022/03/26 03:45:12;;;;;;;32.87;14.03;;;-0.10;99.90;;;;;;5012429;28;20183;-69
2022/03/26 03:47:38;;;;;;;29.83;13.80;;;-0.10;99.90;;;;;;5011961;28;20186;-68
2022/03/26 03:50:05;;;;;;;35.53;14.03;;;-0.10;99.90;;;;;;5012004;28;20242;-71
2022/03/26 03:52:31;;;;;;;29.10;14.67;;;-0.10;99.90;;;;;;5012250;28;20183;-69
2022/03/26 03:54:57;;;;;;;31.37;13.90;;;-0.20;99.90;;;;;;5012084;28;20241;-69
2022/03/26 03:57:23;;;;;;;33.00;14.03;;;-0.30;99.90;;;;;;5012070;28;20701;-69
2022/03/26 03:59:49;;;;;;;27.30;13.30;;;-0.30;99.90;;;;;;5011732;28;20190;-69
2022/03/26 04:02:16;;;;;;;33.37;14.63;;;-0.10;99.90;;;;;;5012016;28;20214;-69
2022/03/26 04:04:42;;;;;;;26.73;13.37;;;-0.10;99.90;;;;;;5011705;28;20535;-69
2022/03/26 04:07:08;;;;;;;36.57;15.63;;;0.00;99.90;;;;;;5012223;28;20228;-69
2022/03/26 04:09:35;;;;;;;34.93;15.20;;;0.10;99.90;;;;;;5012065;28;20262;-70
2022/03/26 04:12:01;;;;;;;30.63;12.70;;;0.00;99.90;;;;;;5012128;28;20191;-69
2022/03/26 04:14:28;;;;;;;38.20;13.63;;;0.00;99.90;;;;;;5012169;28;20194;-70
2022/03/26 04:16:54;;;;;;;27.17;12.27;;;0.00;99.90;;;;;;5011902;28;20284;-68
2022/03/26 04:19:19;;;;;;;35.13;13.13;;;-0.10;99.90;;;;;;5011669;28;20218;-69
2022/03/26 04:21:46;;;;;;;35.50;13.57;;;-0.10;99.90;;;;;;4977708;28;20199;-69
2022/03/26 04:24:12;;;;;;;30.87;14.17;;;0.00;99.90;;;;;;5011944;28;20190;-68
2022/03/26 04:26:38;;;;;;;28.30;13.73;;;0.00;99.90;;;;;;5011719;28;20180;-67
2022/03/26 04:29:04;;;;;;;34.57;12.77;;;0.00;99.90;;;;;;4994298;28;20186;-68
2022/03/26 04:31:30;;;;;;;31.27;14.53;;;0.10;99.90;;;;;;5011845;28;20218;-68
2022/03/26 04:34:01;;;;;;;29.93;13.00;;;0.10;99.90;;;;;;5011325;28;20658;-69
2022/03/26 04:36:28;;;;;;;36.23;13.10;;;0.20;99.90;;;;;;5025970;28;20262;-66
2022/03/26 04:38:53;;;;;;;37.97;14.63;;;0.20;99.90;;;;;;5034488;28;20183;-68
2022/03/26 04:41:19;;;;;;;30.80;14.17;;;0.30;99.90;;;;;;5035429;28;20183;-68
2022/03/26 04:43:45;;;;;;;34.33;13.73;;;0.40;99.90;;;;;;5034747;28;20233;-68
2022/03/26 04:46:11;;;;;;;31.67;14.50;;;0.50;99.90;;;;;;5035621;28;20187;-68
2022/03/26 04:48:37;;;;;;;30.57;14.00;;;0.50;99.90;;;;;;5034845;28;20230;-68
2022/03/26 04:51:03;;;;;;;32.90;13.80;;;0.60;99.90;;;;;;5033447;28;20214;-68
2022/03/26 04:53:29;;;;;;;28.80;14.30;;;0.70;99.90;;;;;;5035141;28;20183;-69
2022/03/26 04:55:54;;;;;;;35.97;14.37;;;0.80;99.90;;;;;;5034485;28;20636;-69
2022/03/26 04:58:20;;;;;;;31.30;14.07;;;0.90;99.90;;;;;;5035060;28;20696;-69
2022/03/26 05:00:46;;;;;;;39.00;15.03;;;1.00;99.90;;;;;;5034712;28;20190;-68
2022/03/26 05:03:12;;;;;;;32.17;14.00;;;1.10;99.90;;;;;;5033461;28;20237;-68
2022/03/26 05:05:37;;;;;;;30.70;13.97;;;1.20;99.90;;;;;;5034888;28;20194;-68
2022/03/26 05:08:03;;;;;;;36.83;13.53;;;1.30;99.90;;;;;;5034239;28;20217;-69
2022/03/26 05:10:29;;;;;;;31.87;13.87;;;1.40;99.90;;;;;;5033256;28;20696;-68
2022/03/26 05:12:57;;;;;;;30.67;14.20;;;1.50;99.90;;;;;;5034364;28;20573;-68
2022/03/26 05:15:24;;;;;;;26.00;13.00;;;1.70;99.90;;;;;;5034528;28;20195;-66
2022/03/26 05:17:51;;;;;;;34.77;14.10;;;1.80;99.90;;;;;;5034403;28;20214;-69
2022/03/26 05:20:18;;;;;;;32.97;14.30;;;1.90;99.90;;;;;;5034555;28;20180;-69
2022/03/26 05:22:46;;;;;;;34.60;14.13;;;2.10;99.90;;;;;;5033951;28;20639;-67
2022/03/26 05:25:13;;;;;;;42.33;14.57;;;2.20;99.90;;;;;;5034548;28;20304;-68
2022/03/26 05:27:50;;;;;;;37.43;14.27;;;2.40;99.90;;;;;;5034066;28;20192;-69
2022/03/26 05:30:16;;;;;;;31.70;12.80;;;2.50;99.90;;;;;;5032630;28;20600;-68
2022/03/26 05:32:43;;;;;;;36.80;13.67;;;2.70;99.90;;;;;;5032026;28;20643;-64
2022/03/26 05:35:13;;;;;;;34.73;14.63;;;2.80;99.90;;;;;;5029427;28;20186;-69
2022/03/26 05:37:43;;;;;;;30.17;13.97;;;3.00;99.90;;;;;;5013885;28;20627;-68
2022/03/26 05:40:10;;;;;;;28.30;14.47;;;3.10;99.90;;;;;;5014184;28;20186;-68
2022/03/26 05:42:37;;;;;;;37.00;15.80;;;3.20;99.90;;;;;;5013066;28;20183;-70
2022/03/26 05:45:07;;;;;;;42.00;15.77;;;3.40;99.90;;;;;;5011719;28;20719;-68
2022/03/26 05:47:34;;;;;;;37.73;16.20;;;3.60;99.90;;;;;;5012084;28;20213;-67
2022/03/26 05:50:01;;;;;;;42.37;15.80;;;3.70;99.90;;;;;;5010662;28;20338;-68
2022/03/26 05:52:27;;;;;;;51.87;17.10;;;3.90;99.90;;;;;;5012091;28;20176;-68
2022/03/26 05:54:52;;;;;;;38.23;15.37;;;4.10;99.90;;;;;;5011750;28;20187;-68
2022/03/26 05:57:18;;;;;;;45.67;18.70;;;4.30;99.90;;;;;;5012088;28;20686;-68
2022/03/26 05:59:45;;;;;;;55.93;22.57;;;4.50;99.90;;;;;;5013376;28;20242;-64
2022/03/26 06:02:13;;;;;;;47.13;21.87;;;4.70;99.90;;;;;;5013381;28;20182;-68
2022/03/26 06:04:42;;;;;;;64.70;26.67;;;4.80;99.90;;;;;;5012988;28;20182;-68
2022/03/26 06:07:09;;;;;;;42.00;17.87;;;5.00;99.90;;;;;;5012783;28;20176;-71
2022/03/26 06:09:35;;;;;;;46.87;17.73;;;5.10;99.90;;;;;;4994827;28;20336;-70
2022/03/26 06:12:01;;;;;;;30.87;14.60;;;5.30;99.90;;;;;;5012936;28;20242;-69
2022/03/26 06:14:28;;;;;;;31.80;14.47;;;5.50;99.90;;;;;;4996268;28;20176;-68
2022/03/26 06:16:55;;;;;;;34.90;15.70;;;5.70;99.90;;;;;;5012878;28;20696;-68
2022/03/26 06:19:20;;;;;;;39.37;16.00;;;5.80;99.50;;;;;;5013058;28;20503;-67
2022/03/26 06:21:46;;;;;;;37.07;15.80;;;6.00;99.20;;;;;;5012899;28;20184;-68
2022/03/26 06:24:12;;;;;;;36.83;15.80;;;6.20;99.00;;;;;;4995519;28;20221;-69
2022/03/26 06:26:39;;;;;;;42.20;17.57;;;6.40;99.00;;;;;;5013072;28;20227;-69
2022/03/26 06:29:05;;;;;;;38.77;16.43;;;6.50;98.70;;;;;;5013085;28;20216;-68
2022/03/26 06:31:32;;;;;;;40.83;15.47;;;6.70;98.30;;;;;;5013166;28;20276;-69
2022/03/26 06:33:58;;;;;;;33.97;14.60;;;6.80;98.20;;;;;;4995041;28;20178;-68
2022/03/26 06:36:25;;;;;;;35.97;15.67;;;7.00;97.90;;;;;;5026840;28;20183;-69
2022/03/26 06:38:51;;;;;;;28.73;13.00;;;7.20;97.90;;;;;;5031231;28;20197;-69
2022/03/26 06:41:17;;;;;;;34.30;13.53;;;7.40;97.70;;;;;;5030354;28;20551;-69
2022/03/26 06:43:43;;;;;;;36.10;14.83;;;7.60;97.60;;;;;;5030686;28;20213;-69
2022/03/26 06:46:09;;;;;;;43.70;16.57;;;7.80;97.40;;;;;;5029163;28;20182;-69
2022/03/26 06:48:35;;;;;;;38.43;16.50;;;8.00;97.20;;;;;;5041707;28;20234;-69
2022/03/26 06:51:03;;;;;;;64.53;26.10;;;8.20;96.80;;;;;;5035394;28;20218;-71
2022/03/26 06:53:29;;;;;;;40.77;19.10;;;8.10;95.40;;;;;;5032422;28;20198;-69
2022/03/26 06:55:56;;;;;;;53.27;21.57;;;8.00;96.40;;;;;;5031869;28;20187;-70
2022/03/26 06:58:23;;;;;;;48.37;17.53;;;8.00;96.20;;;;;;5031784;28;20721;-69
2022/03/26 07:00:49;;;;;;;40.37;15.13;;;8.20;96.60;;;;;;5031835;28;20179;-70
2022/03/26 07:03:15;;;;;;;56.43;24.63;;;8.50;96.70;;;;;;5013861;28;20240;-70
2022/03/26 07:05:40;;;;;;;42.97;17.07;;;8.70;96.20;;;;;;5031666;28;20186;-69
2022/03/26 07:08:06;;;;;;;37.97;15.20;;;8.80;96.10;;;;;;5013897;28;20651;-69
2022/03/26 07:10:33;;;;;;;35.90;16.53;;;9.00;95.80;;;;;;5031287;28;20749;-68
2022/03/26 07:12:58;;;;;;;46.73;14.97;;;9.30;95.70;;;;;;5031404;28;20213;-68
2022/03/26 07:15:24;;;;;;;30.37;13.23;;;9.50;95.40;;;;;;5013257;28;20193;-70
2022/03/26 07:17:50;;;;;;;58.40;17.50;;;9.70;95.20;;;;;;5013762;28;20211;-69
2022/03/26 07:20:16;;;;;;;38.77;17.07;;;9.90;95.00;;;;;;5031753;28;20204;-71
2022/03/26 07:22:43;;;;;;;57.13;20.90;;;10.00;94.50;;;;;;5007688;28;21768;-70
2022/03/26 07:25:09;;;;;;;33.47;14.00;;;10.10;93.80;;;;;;5025974;28;20245;-66
2022/03/26 07:27:36;;;;;;;27.83;13.90;;;10.20;94.00;;;;;;5022195;28;20207;-70
2022/03/26 07:30:04;;;;;;;34.13;14.87;;;10.40;93.90;;;;;;5031010;28;20301;-71
2022/03/26 07:32:30;;;;;;;32.40;14.20;;;10.60;93.80;;;;;;5027013;28;20224;-69
2022/03/26 07:34:56;;;;;;;27.40;13.40;;;10.70;93.30;;;;;;5029416;28;20594;-68
2022/03/26 07:37:23;;;;;;;34.37;13.77;;;10.80;92.90;;;;;;5027380;28;20206;-69
2022/03/26 07:39:50;;;;;;;28.93;12.43;;;11.00;92.80;;;;;;5031418;28;20287;-65
2022/03/26 07:42:16;;;;;;;25.90;10.57;;;11.10;92.50;;;;;;5017083;28;20634;-69
2022/03/26 07:44:42;;;;;;;22.97;10.50;;;11.30;91.90;;;;;;5031031;28;20225;-69
2022/03/26 07:47:08;;;;;;;26.43;11.37;;;11.40;91.60;;;;;;5014573;28;20257;-70
2022/03/26 07:49:34;;;;;;;23.40;10.23;;;11.50;91.40;;;;;;5024316;28;20235;-68
2022/03/26 07:52:00;;;;;;;25.43;9.63;;;11.60;90.80;;;;;;5026634;28;20232;-69
2022/03/26 07:54:26;;;;;;;18.93;9.13;;;11.70;90.60;;;;;;5031186;28;20545;-71
2022/03/26 07:56:52;;;;;;;22.70;9.00;;;11.80;90.20;;;;;;5019624;28;20199;-71
2022/03/26 07:59:18;;;;;;;24.57;10.77;;;11.90;89.70;;;;;;5017566;28;20601;-69
2022/03/26 08:01:44;;;;;;;24.60;10.60;;;12.00;89.50;;;;;;5021465;28;20203;-71
2022/03/26 08:04:10;;;;;;;27.23;10.53;;;12.10;90.00;;;;;;5029798;28;20216;-70
2022/03/26 08:06:36;;;;;;;23.67;11.17;;;12.10;88.10;;;;;;5001045;28;20243;-70
2022/03/26 08:09:02;;;;;;;24.83;10.03;;;12.20;87.10;;;;;;5008179;28;20209;-71
2022/03/26 08:11:29;;;;;;;18.80;9.17;;;12.20;86.20;;;;;;5020197;28;20225;-70
2022/03/26 08:13:54;;;;;;;22.73;10.67;;;12.30;85.30;;;;;;5030424;28;20196;-70
2022/03/26 08:16:20;;;;;;;28.77;10.87;;;12.30;85.00;;;;;;5021658;28;20263;-71
2022/03/26 08:18:46;;;;;;;26.53;9.03;;;12.40;84.30;;;;;;5026881;28;20309;-70
2022/03/26 08:21:14;;;;;;;20.43;9.20;;;12.50;82.20;;;;;;5025606;28;20252;-69
2022/03/26 08:23:40;;;;;;;16.90;8.57;;;12.50;81.90;;;;;;5024536;28;20635;-70
2022/03/26 08:28:52;;;;;;;23.83;9.43;;;12.70;80.40;;;;;;5027229;28;20204;-71
2022/03/26 08:31:20;;;;;;;30.77;9.47;;;12.80;79.70;;;;;;5011923;28;20586;-71
2022/03/26 08:33:46;;;;;;;21.33;9.93;;;13.00;78.20;;;;;;5033190;28;20228;-68
2022/03/26 08:36:13;;;;;;;22.87;8.47;;;13.00;76.80;;;;;;5026098;28;20195;-69
2022/03/26 08:38:40;;;;;;;29.43;10.27;;;13.00;76.60;;;;;;5033808;28;20206;-71
2022/03/26 08:41:05;;;;;;;19.10;9.57;;;13.00;77.00;;;;;;5008953;28;20273;-70
2022/03/26 08:43:31;;;;;;;24.13;8.83;;;13.10;76.20;;;;;;5016635;28;20747;-69
2022/03/26 08:45:58;;;;;;;20.13;8.90;;;13.00;75.70;;;;;;5027461;28;20267;-69
2022/03/26 08:48:24;;;;;;;21.93;10.00;;;13.00;75.50;;;;;;5026877;28;20263;-71
2022/03/26 08:50:50;;;;;;;33.63;8.13;;;13.00;75.90;;;;;;5027968;28;20681;-70
2022/03/26 08:53:15;;;;;;;17.40;8.83;;;13.10;75.10;;;;;;4991284;28;20640;-71
2022/03/26 08:55:41;;;;;;;23.23;10.50;;;13.20;75.20;;;;;;5029184;28;20186;-70
2022/03/26 08:58:07;;;;;;;25.50;11.17;;;13.30;74.10;;;;;;5006932;28;20213;-69
2022/03/26 09:00:34;;;;;;;21.63;10.23;;;13.30;74.00;;;;;;5030663;28;20186;-70
2022/03/26 09:03:01;;;;;;;19.90;10.80;;;13.30;73.60;;;;;;5023186;28;20189;-70
2022/03/26 09:05:27;;;;;;;24.63;10.43;;;13.30;73.40;;;;;;5030563;28;20290;-70
2022/03/26 09:07:53;;;;;;;25.07;11.80;;;13.50;73.70;;;;;;5015429;28;20200;-71
2022/03/26 09:10:19;;;;;;;28.60;11.47;;;13.60;72.60;;;;;;5027284;28;20215;-69
2022/03/26 09:12:46;;;;;;;20.17;11.07;;;13.70;72.70;;;;;;5021007;28;20542;-70
2022/03/26 09:15:12;;;;;;;24.80;11.47;;;13.80;71.80;;;;;;5033065;28;20202;-68
2022/03/26 09:17:38;;;;;;;25.27;12.30;;;13.90;71.50;;;;;;5015750;28;20195;-69
2022/03/26 09:20:05;;;;;;;21.67;9.70;;;13.90;71.10;;;;;;5031787;28;20268;-67
2022/03/26 09:22:31;;;;;;;20.70;10.80;;;14.10;70.50;;;;;;5000885;28;20187;-69
2022/03/26 09:24:57;;;;;;;22.83;11.33;;;14.10;69.50;;;;;;5030765;28;20190;-68
2022/03/26 09:27:23;;;;;;;21.93;10.40;;;14.10;69.10;;;;;;5018929;28;20187;-71
2022/03/26 09:29:49;;;;;;;20.47;9.47;;;14.00;69.30;;;;;;5029646;28;20218;-69
2022/03/26 09:32:14;;;;;;;23.33;9.83;;;14.10;68.70;;;;;;4996572;28;20190;-71
2022/03/26 09:34:40;;;;;;;18.00;7.97;;;14.20;68.30;;;;;;5032824;28;20194;-72
2022/03/26 09:37:06;;;;;;;15.33;7.53;;;14.30;66.80;;;;;;5014937;28;20203;-69
2022/03/26 09:39:32;;;;;;;18.03;7.03;;;14.50;66.90;;;;;;5032065;28;20192;-73
2022/03/26 09:41:58;;;;;;;17.07;7.07;;;14.70;66.20;;;;;;5018141;28;20282;-67
2022/03/26 09:44:24;;;;;;;12.27;7.17;;;14.70;65.40;;;;;;5032988;28;20191;-70
2022/03/26 09:46:51;;;;;;;19.77;7.70;;;14.80;64.90;;;;;;5026250;28;20295;-62
2022/03/26 09:49:16;;;;;;;17.43;8.73;;;14.80;64.80;;;;;;5023751;28;20228;-67
2022/03/26 09:51:43;;;;;;;21.90;8.03;;;14.90;64.70;;;;;;5019675;28;20273;-67
2022/03/26 09:54:15;;;;;;;20.50;7.93;;;15.00;64.30;;;;;;5031340;28;20250;-67
2022/03/26 09:56:41;;;;;;;19.23;8.30;;;15.00;63.70;;;;;;5002736;28;20564;-69
2022/03/26 09:59:07;;;;;;;16.53;7.23;;;14.80;63.30;;;;;;5030917;28;20254;-68
2022/03/26 10:01:33;;;;;;;19.60;7.70;;;14.80;63.90;;;;;;5003548;28;20200;-68
2022/03/26 10:04:13;;;;;;;15.87;7.53;;;14.90;64.00;;;;;;5029872;28;20198;-67
2022/03/26 10:06:59;;;;;;;15.63;7.77;;;15.00;64.30;;;;;;5019799;28;20198;-66
2022/03/26 10:09:39;;;;;;;15.97;8.10;;;15.00;63.50;;;;;;5031282;28;20246;-68
2022/03/26 10:12:10;;;;;;;16.30;7.23;;;15.00;62.40;;;;;;5017658;28;20215;-68
2022/03/26 10:14:58;;;;;;;17.07;7.47;;;15.00;62.40;;;;;;5014649;28;20206;-67
2022/03/26 10:17:29;;;;;;;22.33;7.60;;;15.10;62.70;;;;;;5018438;28;20266;-67
2022/03/26 10:19:58;;;;;;;23.00;8.57;;;15.20;62.20;;;;;;5031764;28;20191;-70
2022/03/26 10:22:40;;;;;;;14.47;7.43;;;15.30;62.10;;;;;;5018193;28;20187;-69
2022/03/26 10:25:06;;;;;;;17.47;8.10;;;15.30;61.70;;;;;;5031957;28;20546;-70
2022/03/26 10:27:34;;;;;;;20.60;7.83;;;15.40;61.30;;;;;;5018178;28;20187;-71
2022/03/26 10:29:59;;;;;;;13.63;6.70;;;15.50;61.20;;;;;;5032072;28;20206;-69
2022/03/26 10:32:41;;;;;;;14.37;6.70;;;15.50;61.10;;;;;;5030411;28;20205;-69
2022/03/26 10:35:12;;;;;;;16.40;6.83;;;15.70;60.70;;;;;;5031095;28;20190;-69
2022/03/26 10:38:04;;;;;;;14.67;6.60;;;15.90;60.10;;;;;;5029996;28;20220;-68
2022/03/26 10:40:36;;;;;;;17.50;6.70;;;16.00;58.80;;;;;;5026188;28;20227;-72
2022/03/26 10:43:12;;;;;;;15.80;6.90;;;15.90;58.40;;;;;;5021509;28;20611;-71
2022/03/26 10:45:50;;;;;;;19.80;6.83;;;15.80;58.50;;;;;;5010170;28;20187;-72
2022/03/26 10:48:27;;;;;;;18.97;7.33;;;15.90;58.30;;;;;;5022478;28;20186;-72
2022/03/26 10:51:06;;;;;;;15.93;7.30;;;16.00;58.10;;;;;;5025305;28;20377;-71
2022/03/26 10:53:35;;;;;;;16.97;6.73;;;16.10;57.90;;;;;;5025233;28;20187;-73
2022/03/26 10:56:06;;;;;;;12.97;6.57;;;16.40;57.30;;;;;;5024214;28;20198;-71
2022/03/26 10:58:33;;;;;;;16.13;6.87;;;16.60;56.60;;;;;;5025049;28;20205;-72
2022/03/26 11:01:00;;;;;;;13.10;5.80;;;16.60;56.50;;;;;;5009937;28;20196;-72
2022/03/26 11:03:26;;;;;;;16.37;6.47;;;16.50;55.10;;;;;;5019638;28;20618;-70
2022/03/26 11:05:54;;;;;;;17.57;5.90;;;16.50;55.40;;;;;;5029894;28;20302;-72
2022/03/26 11:08:22;;;;;;;17.47;5.50;;;16.50;55.00;;;;;;5030698;28;20969;-71
2022/03/26 11:10:55;;;;;;;12.93;5.20;;;16.60;54.90;;;;;;5029549;28;20253;-72
2022/03/26 11:13:24;;;;;;;18.87;5.57;;;16.80;54.40;;;;;;5030488;28;20221;-71
2022/03/26 11:15:54;;;;;;;12.00;5.40;;;16.90;54.00;;;;;;5028263;28;20662;-70
2022/03/26 11:18:48;;;;;;;13.70;6.23;;;17.10;53.60;;;;;;5029275;28;20538;-72
2022/03/26 11:21:35;;;;;;;10.40;5.10;;;17.20;53.50;;;;;;5029059;28;20301;-71
2022/03/26 11:24:27;;;;;;;12.53;5.43;;;17.40;53.20;;;;;;5030818;28;20163;-70
2022/03/26 11:27:04;;;;;;;11.83;4.70;;;17.50;51.80;;;;;;5031088;28;20374;-72
2022/03/26 11:29:53;;;;;;;14.63;5.50;;;17.60;51.30;;;;;;5031709;28;20173;-73
2022/03/26 11:32:26;;;;;;;10.00;4.53;;;17.80;50.80;;;;;;5020077;28;20207;-71
2022/03/26 11:34:59;;;;;;;16.17;5.20;;;18.10;50.40;;;;;;5030104;28;20167;-72
2022/03/26 11:37:25;;;;;;;12.57;4.40;;;18.30;49.80;;;;;;5011437;28;20620;-71
2022/03/26 11:39:51;;;;;;;9.77;4.60;;;18.50;49.10;;;;;;5011701;28;20191;-72
2022/03/26 11:42:33;;;;;;;10.20;3.57;;;18.70;48.90;;;;;;5010696;28;20188;-70
2022/03/26 11:51:19;;;;;;;8.65;3.50;;;19.80;45.00;;;;;;5011164;28;20242;-70
2022/03/26 11:53:48;;;;;;;11.48;4.22;;;22.00;41.70;;;;;;5010139;28;20176;-71
2022/03/26 11:56:30;;;;;;;5.63;3.65;;;21.80;39.80;;;;;;5010844;28;20401;-71
2022/03/26 11:59:18;;;;;;;11.13;4.20;;;22.40;40.20;;;;;;5011679;28;20286;-72
2022/03/26 12:01:48;;;;;;;12.75;4.80;;;23.90;38.30;;;;;;5012073;28;20318;-72
2022/03/26 12:04:17;;;;;;;9.38;3.75;;;24.20;36.10;;;;;;5010538;28;20190;-72
2022/03/26 12:06:51;;;;;;;10.70;4.20;;;23.40;36.60;;;;;;5011811;28;20620;-73
2022/03/26 12:09:37;;;;;;;13.48;4.13;;;23.30;36.90;;;;;;5011648;28;20210;-71
2022/03/26 12:12:06;;;;;;;9.02;3.65;;;23.90;35.90;;;;;;5011203;28;20211;-72
2022/03/26 12:14:55;;;;;;;11.85;3.90;;;25.10;34.60;;;;;;5011476;28;20175;-72
2022/03/26 12:18:05;;;;;;;9.10;4.63;;;26.00;33.40;;;;;;5000084;28;20211;-72
2022/03/26 12:20:41;;;;;;;10.75;4.05;;;27.00;31.50;;;;;;4982799;28;20655;-73
2022/03/26 12:23:13;;;;;;;10.57;4.82;;;25.70;30.90;;;;;;5010900;28;20255;-73
2022/03/26 12:25:51;;;;;;;12.73;3.97;;;24.80;31.80;;;;;;4993753;28;20282;-71
2022/03/26 12:28:18;;;;;;;10.18;4.63;;;23.30;31.80;;;;;;5010718;28;20522;-73
2022/03/26 12:30:49;;;;;;;14.40;4.65;;;21.90;34.40;;;;;;5011346;28;20211;-74
2022/03/26 12:33:15;;;;;;;8.18;3.78;;;22.40;34.40;;;;;;5010947;28;20228;-71
2022/03/26 12:35:44;;;;;;;12.90;4.05;;;21.60;34.60;;;;;;5019563;28;20198;-73
2022/03/26 12:38:10;;;;;;;10.15;4.20;;;21.10;35.70;;;;;;5030635;28;20205;-72
2022/03/26 12:40:38;;;;;;;9.13;4.43;;;21.70;35.00;;;;;;5030810;28;20195;-73
2022/03/26 12:43:07;;;;;;;9.68;4.65;;;23.40;33.50;;;;;;5013347;28;20226;-73
2022/03/26 12:45:33;;;;;;;13.55;4.72;;;25.70;31.20;;;;;;5012955;28;20206;-71